sensor_id;sensor_type;location;lat;lon;timestamp;pressure;altitude;pressure_sealevel;temperature;humidity
48862;BME280;34681;49.188;-0.374;2022-11-20T00:02:12;101219.53;;;9.68;nan
48862;BME280;34681;49.188;-0.374;2022-11-20T00:04:37;101218.63;;;9.68;nan
48862;BME280;34681;49.188;-0.374;2022-11-20T00:07:02;101214.16;;;9.67;nan
48862;BME280;34681;49.188;-0.374;2022-11-20T00:09:28;101211.53;;;9.76;nan
48862;BME280;34681;49.188;-0.374;2022-11-20T00:11:53;101211.97;;;9.61;nan
48862;BME280;34681;49.188;-0.374;2022-11-20T00:14:19;101215.28;;;9.64;nan
48862;BME280;34681;49.188;-0.374;2022-11-20T00:16:44;101218.94;;;9.53;nan
48862;BME280;34681;49.188;-0.374;2022-11-20T00:19:09;101211.34;;;9.57;nan
48862;BME280;34681;49.188;-0.374;2022-11-20T00:21:34;101212.19;;;9.57;nan
48862;BME280;34681;49.188;-0.374;2022-11-20T00:24:00;101210.97;;;9.50;nan
48862;BME280;34681;49.188;-0.374;2022-11-20T00:26:26;101214.69;;;9.61;nan
48862;BME280;34681;49.188;-0.374;2022-11-20T00:28:57;101216.06;;;9.55;nan
48862;BME280;34681;49.188;-0.374;2022-11-20T00:31:23;101211.50;;;9.44;nan
48862;BME280;34681;49.188;-0.374;2022-11-20T00:33:49;101208.00;;;9.53;nan
48862;BME280;34681;49.188;-0.374;2022-11-20T00:36:17;101212.34;;;9.56;nan
48862;BME280;34681;49.188;-0.374;2022-11-20T00:38:43;101204.50;;;9.63;nan
48862;BME280;34681;49.188;-0.374;2022-11-20T00:41:11;101202.69;;;9.41;nan
48862;BME280;34681;49.188;-0.374;2022-11-20T00:43:37;101194.72;;;9.49;nan
48862;BME280;34681;49.188;-0.374;2022-11-20T00:46:06;101194.72;;;9.49;nan
48862;BME280;34681;49.188;-0.374;2022-11-20T00:48:32;101181.34;;;9.35;nan
48862;BME280;34681;49.188;-0.374;2022-11-20T00:50:57;101183.09;;;9.36;nan
48862;BME280;34681;49.188;-0.374;2022-11-20T00:53:23;101168.91;;;9.53;nan
48862;BME280;34681;49.188;-0.374;2022-11-20T00:55:55;101169.41;;;9.47;nan
48862;BME280;34681;49.188;-0.374;2022-11-20T00:58:21;101174.00;;;9.46;nan
48862;BME280;34681;49.188;-0.374;2022-11-20T01:00:47;101163.69;;;9.50;nan
48862;BME280;34681;49.188;-0.374;2022-11-20T01:03:12;101171.94;;;9.60;nan
48862;BME280;34681;49.188;-0.374;2022-11-20T01:05:38;101173.16;;;9.67;nan
48862;BME280;34681;49.188;-0.374;2022-11-20T01:08:03;101170.28;;;9.47;nan
48862;BME280;34681;49.188;-0.374;2022-11-20T01:10:29;101163.16;;;9.56;nan
48862;BME280;34681;49.188;-0.374;2022-11-20T01:12:54;101159.34;;;9.47;nan
48862;BME280;34681;49.188;-0.374;2022-11-20T01:15:39;101155.81;;;9.36;nan
48862;BME280;34681;49.188;-0.374;2022-11-20T01:18:05;101158.06;;;9.51;nan
48862;BME280;34681;49.188;-0.374;2022-11-20T01:20:34;101146.19;;;9.41;nan
48862;BME280;34681;49.188;-0.374;2022-11-20T01:23:01;101155.13;;;9.11;nan
48862;BME280;34681;49.188;-0.374;2022-11-20T01:25:27;101157.72;;;9.13;nan
48862;BME280;34681;49.188;-0.374;2022-11-20T01:27:53;101154.75;;;9.05;nan
48862;BME280;34681;49.188;-0.374;2022-11-20T01:30:18;101155.56;;;9.27;nan
48862;BME280;34681;49.188;-0.374;2022-11-20T01:32:44;101146.34;;;9.40;nan
48862;BME280;34681;49.188;-0.374;2022-11-20T01:35:09;101146.25;;;9.30;nan
48862;BME280;34681;49.188;-0.374;2022-11-20T01:37:35;101140.34;;;9.14;nan
48862;BME280;34681;49.188;-0.374;2022-11-20T01:40:00;101137.09;;;9.20;nan
48862;BME280;34681;49.188;-0.374;2022-11-20T01:42:26;101125.75;;;9.36;nan
48862;BME280;34681;49.188;-0.374;2022-11-20T01:45:46;101129.72;;;9.32;nan
48862;BME280;34681;49.188;-0.374;2022-11-20T01:48:19;101130.16;;;9.16;nan
48862;BME280;34681;49.188;-0.374;2022-11-20T01:50:46;101130.78;;;9.19;nan
48862;BME280;34681;49.188;-0.374;2022-11-20T01:53:15;101116.16;;;9.41;nan
48862;BME280;34681;49.188;-0.374;2022-11-20T01:55:45;101122.84;;;9.48;nan
48862;BME280;34681;49.188;-0.374;2022-11-20T01:58:13;101118.59;;;9.23;nan
48862;BME280;34681;49.188;-0.374;2022-11-20T02:00:40;101118.22;;;9.17;nan
48862;BME280;34681;49.188;-0.374;2022-11-20T02:03:08;101115.13;;;9.53;nan
48862;BME280;34681;49.188;-0.374;2022-11-20T02:08:15;101105.00;;;9.65;nan
48862;BME280;34681;49.188;-0.374;2022-11-20T02:10:41;101103.66;;;9.60;nan
48862;BME280;34681;49.188;-0.374;2022-11-20T02:13:07;101106.28;;;9.61;nan
48862;BME280;34681;49.188;-0.374;2022-11-20T02:15:51;101098.75;;;9.53;nan
48862;BME280;34681;49.188;-0.374;2022-11-20T02:18:18;101092.28;;;9.75;nan
48862;BME280;34681;49.188;-0.374;2022-11-20T02:20:47;101087.09;;;9.72;nan
48862;BME280;34681;49.188;-0.374;2022-11-20T02:23:33;101084.28;;;9.83;nan
48862;BME280;34681;49.188;-0.374;2022-11-20T02:26:04;101072.50;;;9.62;nan
48862;BME280;34681;49.188;-0.374;2022-11-20T02:28:32;101075.44;;;9.70;nan
48862;BME280;34681;49.188;-0.374;2022-11-20T02:30:58;101069.28;;;9.36;nan
48862;BME280;34681;49.188;-0.374;2022-11-20T02:33:23;101069.69;;;9.52;nan
48862;BME280;34681;49.188;-0.374;2022-11-20T02:35:49;101064.34;;;9.51;nan
48862;BME280;34681;49.188;-0.374;2022-11-20T02:38:14;101058.50;;;9.55;nan
48862;BME280;34681;49.188;-0.374;2022-11-20T02:40:40;101048.22;;;9.48;nan
48862;BME280;34681;49.188;-0.374;2022-11-20T02:43:06;101042.88;;;9.67;nan
48862;BME280;34681;49.188;-0.374;2022-11-20T02:45:32;101036.66;;;9.76;nan
48862;BME280;34681;49.188;-0.374;2022-11-20T02:47:58;101035.50;;;9.58;nan
48862;BME280;34681;49.188;-0.374;2022-11-20T02:50:23;101031.50;;;9.62;nan
48862;BME280;34681;49.188;-0.374;2022-11-20T02:52:48;101024.03;;;9.64;nan
48862;BME280;34681;49.188;-0.374;2022-11-20T02:55:14;101031.66;;;9.91;nan
48862;BME280;34681;49.188;-0.374;2022-11-20T02:57:39;101023.13;;;10.05;nan
48862;BME280;34681;49.188;-0.374;2022-11-20T03:00:05;101014.59;;;9.99;nan
48862;BME280;34681;49.188;-0.374;2022-11-20T03:02:32;101010.75;;;9.80;nan
48862;BME280;34681;49.188;-0.374;2022-11-20T03:04:57;101011.97;;;9.88;nan
48862;BME280;34681;49.188;-0.374;2022-11-20T03:07:23;101007.06;;;9.91;nan
48862;BME280;34681;49.188;-0.374;2022-11-20T03:09:48;101005.09;;;9.93;nan
48862;BME280;34681;49.188;-0.374;2022-11-20T03:12:14;100999.78;;;9.71;nan
48862;BME280;34681;49.188;-0.374;2022-11-20T03:14:39;100991.78;;;9.79;nan
48862;BME280;34681;49.188;-0.374;2022-11-20T03:17:04;100988.75;;;9.82;nan
48862;BME280;34681;49.188;-0.374;2022-11-20T03:19:30;100991.47;;;10.03;nan
48862;BME280;34681;49.188;-0.374;2022-11-20T03:21:55;100987.78;;;9.93;nan
48862;BME280;34681;49.188;-0.374;2022-11-20T03:24:21;100989.94;;;9.89;nan
48862;BME280;34681;49.188;-0.374;2022-11-20T03:26:46;100979.16;;;9.88;nan
48862;BME280;34681;49.188;-0.374;2022-11-20T03:29:11;100975.41;;;9.89;nan
48862;BME280;34681;49.188;-0.374;2022-11-20T03:31:38;100971.13;;;9.96;nan
48862;BME280;34681;49.188;-0.374;2022-11-20T03:34:09;100963.84;;;10.06;nan
48862;BME280;34681;49.188;-0.374;2022-11-20T03:36:38;100962.03;;;9.85;nan
48862;BME280;34681;49.188;-0.374;2022-11-20T03:39:04;100959.50;;;9.94;nan
48862;BME280;34681;49.188;-0.374;2022-11-20T03:41:31;100953.59;;;9.98;nan
48862;BME280;34681;49.188;-0.374;2022-11-20T03:43:58;100951.75;;;10.08;nan
48862;BME280;34681;49.188;-0.374;2022-11-20T03:46:26;100954.09;;;9.82;nan
48862;BME280;34681;49.188;-0.374;2022-11-20T03:48:52;100952.38;;;9.81;nan
48862;BME280;34681;49.188;-0.374;2022-11-20T03:51:23;100948.84;;;9.60;nan
48862;BME280;34681;49.188;-0.374;2022-11-20T03:53:51;100950.97;;;9.87;nan
48862;BME280;34681;49.188;-0.374;2022-11-20T03:56:19;100950.19;;;9.75;nan
48862;BME280;34681;49.188;-0.374;2022-11-20T03:58:44;100944.16;;;9.81;nan
48862;BME280;34681;49.188;-0.374;2022-11-20T04:01:22;100947.72;;;9.72;nan
48862;BME280;34681;49.188;-0.374;2022-11-20T04:03:48;100943.13;;;9.73;nan
48862;BME280;34681;49.188;-0.374;2022-11-20T04:06:19;100934.97;;;9.82;nan
48862;BME280;34681;49.188;-0.374;2022-11-20T04:08:45;100930.56;;;9.61;nan
48862;BME280;34681;49.188;-0.374;2022-11-20T04:11:12;100927.03;;;9.70;nan
48862;BME280;34681;49.188;-0.374;2022-11-20T04:13:39;100929.59;;;9.71;nan
48862;BME280;34681;49.188;-0.374;2022-11-20T04:16:05;100923.44;;;9.48;nan
48862;BME280;34681;49.188;-0.374;2022-11-20T04:18:31;100924.31;;;9.49;nan
48862;BME280;34681;49.188;-0.374;2022-11-20T04:20:58;100913.88;;;9.64;nan
48862;BME280;34681;49.188;-0.374;2022-11-20T04:23:23;100908.78;;;9.80;nan
48862;BME280;34681;49.188;-0.374;2022-11-20T04:25:49;100911.09;;;9.84;nan
48862;BME280;34681;49.188;-0.374;2022-11-20T04:28:14;100911.69;;;9.88;nan
48862;BME280;34681;49.188;-0.374;2022-11-20T04:30:40;100902.81;;;10.05;nan
48862;BME280;34681;49.188;-0.374;2022-11-20T04:33:05;100903.66;;;9.96;nan
48862;BME280;34681;49.188;-0.374;2022-11-20T04:35:34;100899.72;;;9.79;nan
48862;BME280;34681;49.188;-0.374;2022-11-20T04:37:59;100888.66;;;9.81;nan
48862;BME280;34681;49.188;-0.374;2022-11-20T04:40:25;100888.81;;;9.89;nan
48862;BME280;34681;49.188;-0.374;2022-11-20T04:42:50;100873.50;;;9.67;nan
48862;BME280;34681;49.188;-0.374;2022-11-20T04:45:15;100876.03;;;9.59;nan
48862;BME280;34681;49.188;-0.374;2022-11-20T04:47:41;100870.75;;;9.67;nan
48862;BME280;34681;49.188;-0.374;2022-11-20T04:50:06;100877.19;;;9.97;nan
48862;BME280;34681;49.188;-0.374;2022-11-20T04:52:32;100875.31;;;9.97;nan
48862;BME280;34681;49.188;-0.374;2022-11-20T04:54:57;100874.47;;;9.97;nan
48862;BME280;34681;49.188;-0.374;2022-11-20T04:57:22;100880.16;;;9.84;nan
48862;BME280;34681;49.188;-0.374;2022-11-20T04:59:48;100876.47;;;9.95;nan
48862;BME280;34681;49.188;-0.374;2022-11-20T05:02:13;100876.69;;;9.72;nan
48862;BME280;34681;49.188;-0.374;2022-11-20T05:04:38;100877.41;;;9.74;nan
48862;BME280;34681;49.188;-0.374;2022-11-20T05:07:04;100854.53;;;9.75;nan
48862;BME280;34681;49.188;-0.374;2022-11-20T05:09:29;100858.03;;;9.77;nan
48862;BME280;34681;49.188;-0.374;2022-11-20T05:11:55;100855.28;;;9.77;nan
48862;BME280;34681;49.188;-0.374;2022-11-20T05:14:20;100851.13;;;9.93;nan
48862;BME280;34681;49.188;-0.374;2022-11-20T05:16:45;100848.53;;;9.81;nan
48862;BME280;34681;49.188;-0.374;2022-11-20T05:19:11;100845.41;;;10.05;nan
48862;BME280;34681;49.188;-0.374;2022-11-20T05:21:36;100846.97;;;9.89;nan
48862;BME280;34681;49.188;-0.374;2022-11-20T05:24:01;100845.38;;;9.86;nan
48862;BME280;34681;49.188;-0.374;2022-11-20T05:26:27;100841.38;;;10.00;nan
48862;BME280;34681;49.188;-0.374;2022-11-20T05:28:52;100843.38;;;9.88;nan
48862;BME280;34681;49.188;-0.374;2022-11-20T05:31:24;100844.06;;;9.80;nan
48862;BME280;34681;49.188;-0.374;2022-11-20T05:33:50;100846.06;;;9.69;nan
48862;BME280;34681;49.188;-0.374;2022-11-20T05:36:16;100847.03;;;9.68;nan
48862;BME280;34681;49.188;-0.374;2022-11-20T05:38:43;100847.47;;;9.63;nan
48862;BME280;34681;49.188;-0.374;2022-11-20T05:41:09;100843.19;;;9.80;nan
48862;BME280;34681;49.188;-0.374;2022-11-20T05:43:36;100839.91;;;9.86;nan
48862;BME280;34681;49.188;-0.374;2022-11-20T05:46:03;100842.94;;;9.93;nan
48862;BME280;34681;49.188;-0.374;2022-11-20T05:48:28;100843.09;;;10.01;nan
48862;BME280;34681;49.188;-0.374;2022-11-20T05:50:57;100845.38;;;9.86;nan
48862;BME280;34681;49.188;-0.374;2022-11-20T05:53:23;100831.06;;;9.63;nan
48862;BME280;34681;49.188;-0.374;2022-11-20T05:55:56;100834.84;;;9.72;nan
48862;BME280;34681;49.188;-0.374;2022-11-20T05:58:22;100840.16;;;9.73;nan
48862;BME280;34681;49.188;-0.374;2022-11-20T06:00:47;100840.75;;;9.77;nan
48862;BME280;34681;49.188;-0.374;2022-11-20T06:03:12;100837.91;;;9.98;nan
48862;BME280;34681;49.188;-0.374;2022-11-20T06:05:38;100837.22;;;10.05;nan
48862;BME280;34681;49.188;-0.374;2022-11-20T06:08:03;100835.22;;;10.17;nan
48862;BME280;34681;49.188;-0.374;2022-11-20T06:10:29;100826.69;;;10.01;nan
48862;BME280;34681;49.188;-0.374;2022-11-20T06:12:57;100831.34;;;10.10;nan
48862;BME280;34681;49.188;-0.374;2022-11-20T06:15:22;100822.53;;;10.06;nan
48862;BME280;34681;49.188;-0.374;2022-11-20T06:17:52;100825.56;;;9.94;nan
48862;BME280;34681;49.188;-0.374;2022-11-20T06:20:19;100823.25;;;9.99;nan
48862;BME280;34681;49.188;-0.374;2022-11-20T06:22:44;100823.84;;;10.02;nan
48862;BME280;34681;49.188;-0.374;2022-11-20T06:25:09;100825.09;;;9.89;nan
48862;BME280;34681;49.188;-0.374;2022-11-20T06:27:35;100813.94;;;10.11;nan
48862;BME280;34681;49.188;-0.374;2022-11-20T06:30:00;100819.28;;;10.32;nan
48862;BME280;34681;49.188;-0.374;2022-11-20T06:32:26;100829.50;;;10.30;nan
48862;BME280;34681;49.188;-0.374;2022-11-20T06:34:51;100829.06;;;10.25;nan
48862;BME280;34681;49.188;-0.374;2022-11-20T06:37:16;100828.16;;;9.95;nan
48862;BME280;34681;49.188;-0.374;2022-11-20T06:39:43;100830.19;;;10.12;nan
48862;BME280;34681;49.188;-0.374;2022-11-20T06:42:09;100837.66;;;10.10;nan
48862;BME280;34681;49.188;-0.374;2022-11-20T06:44:34;100839.97;;;10.15;nan
48862;BME280;34681;49.188;-0.374;2022-11-20T06:46:59;100833.94;;;10.21;nan
48862;BME280;34681;49.188;-0.374;2022-11-20T06:49:25;100836.50;;;10.03;nan
48862;BME280;34681;49.188;-0.374;2022-11-20T06:51:50;100836.91;;;9.99;nan
48862;BME280;34681;49.188;-0.374;2022-11-20T06:54:16;100837.78;;;10.09;nan
48862;BME280;34681;49.188;-0.374;2022-11-20T06:56:41;100823.84;;;10.12;nan
48862;BME280;34681;49.188;-0.374;2022-11-20T06:59:07;100815.19;;;10.07;nan
48862;BME280;34681;49.188;-0.374;2022-11-20T07:01:33;100813.47;;;9.96;nan
48862;BME280;34681;49.188;-0.374;2022-11-20T07:03:58;100805.97;;;9.89;nan
48862;BME280;34681;49.188;-0.374;2022-11-20T07:06:24;100798.34;;;9.92;nan
48862;BME280;34681;49.188;-0.374;2022-11-20T07:08:50;100793.06;;;10.10;nan
48862;BME280;34681;49.188;-0.374;2022-11-20T07:11:16;100791.75;;;10.14;nan
48862;BME280;34681;49.188;-0.374;2022-11-20T07:13:42;100790.22;;;10.31;nan
48862;BME280;34681;49.188;-0.374;2022-11-20T07:16:08;100791.94;;;10.22;nan
48862;BME280;34681;49.188;-0.374;2022-11-20T07:18:34;100785.28;;;10.05;nan
48862;BME280;34681;49.188;-0.374;2022-11-20T07:21:03;100783.56;;;9.95;nan
48862;BME280;34681;49.188;-0.374;2022-11-20T07:23:30;100788.69;;;9.78;nan
48862;BME280;34681;49.188;-0.374;2022-11-20T07:25:55;100776.78;;;9.89;nan
48862;BME280;34681;49.188;-0.374;2022-11-20T07:28:20;100770.44;;;9.89;nan
48862;BME280;34681;49.188;-0.374;2022-11-20T07:30:53;100766.44;;;10.12;nan
48862;BME280;34681;49.188;-0.374;2022-11-20T07:33:18;100762.41;;;10.06;nan
48862;BME280;34681;49.188;-0.374;2022-11-20T07:35:44;100769.03;;;10.04;nan
48862;BME280;34681;49.188;-0.374;2022-11-20T07:38:10;100764.84;;;10.00;nan
48862;BME280;34681;49.188;-0.374;2022-11-20T07:40:35;100770.59;;;9.97;nan
48862;BME280;34681;49.188;-0.374;2022-11-20T07:43:00;100771.75;;;10.04;nan
48862;BME280;34681;49.188;-0.374;2022-11-20T07:45:26;100774.94;;;10.19;nan
48862;BME280;34681;49.188;-0.374;2022-11-20T07:47:51;100777.41;;;10.41;nan
48862;BME280;34681;49.188;-0.374;2022-11-20T07:50:17;100773.22;;;10.56;nan
48862;BME280;34681;49.188;-0.374;2022-11-20T07:52:43;100777.94;;;10.74;nan
48862;BME280;34681;49.188;-0.374;2022-11-20T07:55:09;100785.81;;;10.96;nan
48862;BME280;34681;49.188;-0.374;2022-11-20T07:57:35;100788.41;;;10.97;nan
48862;BME280;34681;49.188;-0.374;2022-11-20T08:00:00;100784.09;;;10.95;nan
48862;BME280;34681;49.188;-0.374;2022-11-20T08:02:27;100788.25;;;10.99;nan
48862;BME280;34681;49.188;-0.374;2022-11-20T08:04:52;100786.38;;;11.09;nan
48862;BME280;34681;49.188;-0.374;2022-11-20T08:07:18;100784.66;;;10.98;nan
48862;BME280;34681;49.188;-0.374;2022-11-20T08:09:43;100789.09;;;11.00;nan
48862;BME280;34681;49.188;-0.374;2022-11-20T08:12:16;100780.41;;;11.14;nan
48862;BME280;34681;49.188;-0.374;2022-11-20T08:15:01;100782.31;;;11.41;nan
48862;BME280;34681;49.188;-0.374;2022-11-20T08:17:26;100783.44;;;11.48;nan
48862;BME280;34681;49.188;-0.374;2022-11-20T08:19:51;100786.00;;;11.59;nan
48862;BME280;34681;49.188;-0.374;2022-11-20T08:22:17;100790.53;;;11.50;nan
48862;BME280;34681;49.188;-0.374;2022-11-20T08:24:42;100781.50;;;11.68;nan
48862;BME280;34681;49.188;-0.374;2022-11-20T08:27:08;100786.34;;;11.74;nan
48862;BME280;34681;49.188;-0.374;2022-11-20T08:29:33;100791.38;;;11.78;nan
48862;BME280;34681;49.188;-0.374;2022-11-20T08:31:59;100786.50;;;11.72;nan
48862;BME280;34681;49.188;-0.374;2022-11-20T08:34:24;100795.81;;;11.89;nan
48862;BME280;34681;49.188;-0.374;2022-11-20T08:36:49;100792.28;;;11.97;nan
48862;BME280;34681;49.188;-0.374;2022-11-20T08:39:15;100798.16;;;11.84;nan
48862;BME280;34681;49.188;-0.374;2022-11-20T08:41:40;100797.13;;;11.85;nan
48862;BME280;34681;49.188;-0.374;2022-11-20T08:44:07;100801.00;;;12.10;nan
48862;BME280;34681;49.188;-0.374;2022-11-20T08:46:37;100816.53;;;12.37;nan
48862;BME280;34681;49.188;-0.374;2022-11-20T08:49:10;100812.22;;;12.52;nan
48862;BME280;34681;49.188;-0.374;2022-11-20T08:51:37;100817.16;;;12.67;nan
48862;BME280;34681;49.188;-0.374;2022-11-20T08:54:03;100815.94;;;12.87;nan
48862;BME280;34681;49.188;-0.374;2022-11-20T08:56:29;100817.56;;;12.98;nan
48862;BME280;34681;49.188;-0.374;2022-11-20T08:58:55;100821.44;;;13.13;nan
48862;BME280;34681;49.188;-0.374;2022-11-20T09:01:21;100823.81;;;13.26;nan
48862;BME280;34681;49.188;-0.374;2022-11-20T09:03:47;100821.53;;;13.21;nan
48862;BME280;34681;49.188;-0.374;2022-11-20T09:06:13;100827.03;;;13.21;nan
48862;BME280;34681;49.188;-0.374;2022-11-20T09:08:38;100823.88;;;13.34;nan
48862;BME280;34681;49.188;-0.374;2022-11-20T09:11:05;100824.47;;;13.54;nan
48862;BME280;34681;49.188;-0.374;2022-11-20T09:13:31;100825.16;;;13.56;nan
48862;BME280;34681;49.188;-0.374;2022-11-20T09:15:59;100832.22;;;13.24;nan
48862;BME280;34681;49.188;-0.374;2022-11-20T09:18:26;100836.13;;;13.21;nan
48862;BME280;34681;49.188;-0.374;2022-11-20T09:20:56;100849.94;;;13.30;nan
48862;BME280;34681;49.188;-0.374;2022-11-20T09:23:21;100849.72;;;13.05;nan
48862;BME280;34681;49.188;-0.374;2022-11-20T09:25:46;100854.25;;;12.53;nan
48862;BME280;34681;49.188;-0.374;2022-11-20T09:28:12;100865.16;;;12.62;nan
48862;BME280;34681;49.188;-0.374;2022-11-20T09:30:38;100869.00;;;12.52;nan
48862;BME280;34681;49.188;-0.374;2022-11-20T09:33:05;100882.81;;;12.42;nan
48862;BME280;34681;49.188;-0.374;2022-11-20T09:35:31;100883.50;;;12.62;nan
48862;BME280;34681;49.188;-0.374;2022-11-20T09:37:56;100896.78;;;12.84;nan
48862;BME280;34681;49.188;-0.374;2022-11-20T09:40:28;100891.38;;;12.75;nan
48862;BME280;34681;49.188;-0.374;2022-11-20T09:45:48;100897.22;;;12.44;nan
48862;BME280;34681;49.188;-0.374;2022-11-20T09:56:12;100899.94;;;12.26;nan
48862;BME280;34681;49.188;-0.374;2022-11-20T09:58:39;100912.06;;;12.24;nan
48862;BME280;34681;49.188;-0.374;2022-11-20T10:01:12;100914.75;;;12.06;nan
48862;BME280;34681;49.188;-0.374;2022-11-20T10:04:02;100906.81;;;12.13;nan
48862;BME280;34681;49.188;-0.374;2022-11-20T10:06:33;100917.66;;;12.04;nan
48862;BME280;34681;49.188;-0.374;2022-11-20T10:25:15;100935.78;;;12.15;nan
48862;BME280;34681;49.188;-0.374;2022-11-20T10:30:28;100929.88;;;12.20;nan
48862;BME280;34681;49.188;-0.374;2022-11-20T10:33:03;100927.06;;;12.29;nan
48862;BME280;34681;49.188;-0.374;2022-11-20T10:35:44;100935.44;;;12.28;nan
48862;BME280;34681;49.188;-0.374;2022-11-20T10:38:42;100929.19;;;12.35;nan
48862;BME280;34681;49.188;-0.374;2022-11-20T10:41:15;100922.69;;;12.36;nan
48862;BME280;34681;49.188;-0.374;2022-11-20T10:44:02;100902.69;;;12.26;nan
48862;BME280;34681;49.188;-0.374;2022-11-20T10:46:36;100895.41;;;12.35;nan
48862;BME280;34681;49.188;-0.374;2022-11-20T10:49:06;100907.03;;;12.47;nan
48862;BME280;34681;49.188;-0.374;2022-11-20T10:56:51;100912.25;;;12.40;nan
48862;BME280;34681;49.188;-0.374;2022-11-20T10:59:46;100916.59;;;12.60;nan
48862;BME280;34681;49.188;-0.374;2022-11-20T11:02:23;100922.59;;;12.28;nan
48862;BME280;34681;49.188;-0.374;2022-11-20T11:04:53;100930.22;;;12.34;nan
48862;BME280;34681;49.188;-0.374;2022-11-20T11:07:35;100922.00;;;12.52;nan
48862;BME280;34681;49.188;-0.374;2022-11-20T11:10:16;100933.75;;;12.45;nan
48862;BME280;34681;49.188;-0.374;2022-11-20T11:12:46;100938.63;;;12.23;nan
48862;BME280;34681;49.188;-0.374;2022-11-20T11:15:38;100925.78;;;12.51;nan
48862;BME280;34681;49.188;-0.374;2022-11-20T11:18:04;100914.16;;;12.57;nan
48862;BME280;34681;49.188;-0.374;2022-11-20T11:20:29;100922.63;;;12.64;nan
48862;BME280;34681;49.188;-0.374;2022-11-20T11:22:57;100921.69;;;12.55;nan
48862;BME280;34681;49.188;-0.374;2022-11-20T11:25:34;100922.38;;;12.57;nan
48862;BME280;34681;49.188;-0.374;2022-11-20T11:28:17;100930.41;;;12.51;nan
48862;BME280;34681;49.188;-0.374;2022-11-20T11:30:45;100922.25;;;12.59;nan
48862;BME280;34681;49.188;-0.374;2022-11-20T11:33:23;100925.13;;;12.57;nan
48862;BME280;34681;49.188;-0.374;2022-11-20T11:35:58;100920.53;;;12.58;nan
48862;BME280;34681;49.188;-0.374;2022-11-20T11:40:54;100910.25;;;12.78;nan
48862;BME280;34681;49.188;-0.374;2022-11-20T11:43:49;100914.63;;;12.88;nan
48862;BME280;34681;49.188;-0.374;2022-11-20T11:46:36;100906.09;;;12.91;nan
48862;BME280;34681;49.188;-0.374;2022-11-20T11:52:00;100913.94;;;13.04;nan
48862;BME280;34681;49.188;-0.374;2022-11-20T11:54:53;100914.19;;;12.93;nan
48862;BME280;34681;49.188;-0.374;2022-11-20T12:00:05;100915.03;;;12.93;nan
48862;BME280;34681;49.188;-0.374;2022-11-20T12:02:36;100914.25;;;13.01;nan
48862;BME280;34681;49.188;-0.374;2022-11-20T12:05:35;100919.59;;;13.03;nan
48862;BME280;34681;49.188;-0.374;2022-11-20T12:08:05;100915.97;;;13.02;nan
48862;BME280;34681;49.188;-0.374;2022-11-20T12:10:48;100919.59;;;13.20;nan
48862;BME280;34681;49.188;-0.374;2022-11-20T12:15:59;100923.53;;;13.44;nan
48862;BME280;34681;49.188;-0.374;2022-11-20T12:18:26;100924.28;;;13.54;nan
48862;BME280;34681;49.188;-0.374;2022-11-20T12:34:21;100940.22;;;15.28;nan
48862;BME280;34681;49.188;-0.374;2022-11-20T12:37:10;100948.16;;;15.14;nan
48862;BME280;34681;49.188;-0.374;2022-11-20T12:39:55;100952.28;;;15.27;nan
48862;BME280;34681;49.188;-0.374;2022-11-20T12:56:45;100975.03;;;14.20;nan
48862;BME280;34681;49.188;-0.374;2022-11-20T13:02:25;100952.41;;;14.34;nan
48862;BME280;34681;49.188;-0.374;2022-11-20T13:07:25;100948.72;;;13.57;nan
48862;BME280;34681;49.188;-0.374;2022-11-20T13:09:53;100947.94;;;13.73;nan
48862;BME280;34681;49.188;-0.374;2022-11-20T13:15:05;100930.19;;;13.59;nan
48862;BME280;34681;49.188;-0.374;2022-11-20T13:17:45;100926.88;;;13.30;nan
48862;BME280;34681;49.188;-0.374;2022-11-20T13:20:17;100931.59;;;13.19;nan
48862;BME280;34681;49.188;-0.374;2022-11-20T13:22:54;100937.63;;;13.23;nan
48862;BME280;34681;49.188;-0.374;2022-11-20T13:25:33;100942.66;;;13.28;nan
48862;BME280;34681;49.188;-0.374;2022-11-20T13:30:54;100937.78;;;13.04;nan
48862;BME280;34681;49.188;-0.374;2022-11-20T13:33:28;100943.03;;;12.97;nan
48862;BME280;34681;49.188;-0.374;2022-11-20T13:36:03;100946.09;;;13.12;nan
48862;BME280;34681;49.188;-0.374;2022-11-20T13:38:47;100942.72;;;13.36;nan
48862;BME280;34681;49.188;-0.374;2022-11-20T13:41:32;100948.69;;;13.75;nan
48862;BME280;34681;49.188;-0.374;2022-11-20T13:44:22;100943.44;;;13.64;nan
48862;BME280;34681;49.188;-0.374;2022-11-20T13:46:48;100939.69;;;13.47;nan
48862;BME280;34681;49.188;-0.374;2022-11-20T13:49:32;100948.88;;;13.56;nan
48862;BME280;34681;49.188;-0.374;2022-11-20T14:02:37;100952.00;;;13.87;nan
48862;BME280;34681;49.188;-0.374;2022-11-20T14:05:04;100950.03;;;14.05;nan
48862;BME280;34681;49.188;-0.374;2022-11-20T14:07:39;100944.72;;;14.12;nan
48862;BME280;34681;49.188;-0.374;2022-11-20T14:10:20;100943.78;;;13.95;nan
48862;BME280;34681;49.188;-0.374;2022-11-20T14:12:46;100944.59;;;14.21;nan
48862;BME280;34681;49.188;-0.374;2022-11-20T14:15:26;100942.53;;;14.57;nan
48862;BME280;34681;49.188;-0.374;2022-11-20T14:17:52;100942.13;;;14.44;nan
48862;BME280;34681;49.188;-0.374;2022-11-20T14:20:18;100951.78;;;14.14;nan
48862;BME280;34681;49.188;-0.374;2022-11-20T14:22:49;100956.91;;;14.01;nan
48862;BME280;34681;49.188;-0.374;2022-11-20T14:27:43;100951.34;;;13.93;nan
48862;BME280;34681;49.188;-0.374;2022-11-20T14:30:18;100945.75;;;13.76;nan
48862;BME280;34681;49.188;-0.374;2022-11-20T14:32:45;100940.47;;;13.83;nan
48862;BME280;34681;49.188;-0.374;2022-11-20T14:35:23;100949.97;;;13.63;nan
48862;BME280;34681;49.188;-0.374;2022-11-20T14:37:49;100940.38;;;13.41;nan
48862;BME280;34681;49.188;-0.374;2022-11-20T14:40:32;100942.50;;;13.29;nan
48862;BME280;34681;49.188;-0.374;2022-11-20T14:43:00;100946.03;;;13.04;nan
48862;BME280;34681;49.188;-0.374;2022-11-20T14:45:26;100961.91;;;12.92;nan
48862;BME280;34681;49.188;-0.374;2022-11-20T14:47:56;100950.59;;;12.95;nan
48862;BME280;34681;49.188;-0.374;2022-11-20T14:50:25;100943.69;;;13.09;nan
48862;BME280;34681;49.188;-0.374;2022-11-20T14:52:58;100938.56;;;12.96;nan
48862;BME280;34681;49.188;-0.374;2022-11-20T14:55:38;100943.59;;;13.01;nan